Terminal Aerodrome Forecast
Issued by NWS

Home | Current Version | Previous Version | Text Only | Print | Product List | Glossary On
Versions: 1 2 3 4 5 6 7 8 9 10 11 12 13 14
000
FTUS42 KMLB 232342
TAFLEE
TAF
KLEE 232342Z 2400/2424 24008KT P6SM OVC200
     FM240700 20012KT P6SM SCT025 BKN100
      TEMPO 2408/2412 BKN025
     FM241200 23014G20KT P6SM RA VCTS SCT020 SCT035CB BKN060
      TEMPO 2414/2417 VRB15G30KT 2SM TSRA BKN025CB=

USA.gov is the U.S. government's official web portal to all federal, state and local government web resources and services.